RZO3100 LPMA-LPPI
Flight info
| Callsign | RZO3100 |
|---|---|
| Flight time | 1h 51m |
| Altitude | 18000 |
| Route | DEMZO Q147 IRKID/M079F360 DCT ETROX/M079F380 DCT ZUPAZ DCT VMG/M075F280 H115 TIMTO DCT SOLGI |
| Aircraft | A320/M-SDE3FGHIRWY/LB1 |
Departure
| Time | 2026-05-07 15:18 |
|---|---|
| Airport | Cristiano Ronaldo International Airport (LPMA) |
Arrival
| Time | 2026-05-07 17:09 |
|---|---|
| Airport | Pico Airport (LPPI) |
| Time | Latitude | Longitude | Altitude | Speed | Heading |
|---|---|---|---|---|---|
| 2026-05-07 15:02 | 32.69480 | -16.77467 | 169 ft | 0 kts | 138° |
| 2026-05-07 15:10 | 32.69488 | -16.77475 | 169 ft | 2 kts | 138° |
| 2026-05-07 15:10 | 32.69504 | -16.77492 | 169 ft | 2 kts | 138° |
| 2026-05-07 15:11 | 32.69512 | -16.77501 | 169 ft | 2 kts | 138° |
| 2026-05-07 15:11 | 32.69524 | -16.77513 | 169 ft | 2 kts | 138° |
| 2026-05-07 15:11 | 32.69536 | -16.77527 | 169 ft | 2 kts | 123° |
| 2026-05-07 15:11 | 32.69540 | -16.77544 | 169 ft | 2 kts | 55° |
| 2026-05-07 15:12 | 32.69530 | -16.77559 | 169 ft | 2 kts | 44° |
| 2026-05-07 15:12 | 32.69523 | -16.77567 | 169 ft | 0 kts | 46° |
| 2026-05-07 15:13 | 32.69573 | -16.77506 | 169 ft | 17 kts | 46° |
| 2026-05-07 15:14 | 32.69659 | -16.77401 | 169 ft | 19 kts | 46° |
| 2026-05-07 15:14 | 32.69747 | -16.77290 | 175 ft | 17 kts | 45° |
| 2026-05-07 15:14 | 32.69819 | -16.77205 | 182 ft | 13 kts | 42° |
| 2026-05-07 15:14 | 32.69905 | -16.77182 | 195 ft | 13 kts | 358° |
| 2026-05-07 15:15 | 32.70001 | -16.77176 | 195 ft | 15 kts | 15° |
| 2026-05-07 15:15 | 32.70093 | -16.77093 | 188 ft | 18 kts | 44° |
| 2026-05-07 15:15 | 32.70188 | -16.76981 | 194 ft | 20 kts | 45° |
| 2026-05-07 15:15 | 32.70292 | -16.76858 | 195 ft | 22 kts | 44° |
| 2026-05-07 15:16 | 32.70403 | -16.76728 | 199 ft | 23 kts | 45° |
| 2026-05-07 15:16 | 32.70511 | -16.76600 | 196 ft | 21 kts | 45° |
| 2026-05-07 15:16 | 32.70620 | -16.76495 | 197 ft | 16 kts | 16° |
| 2026-05-07 15:16 | 32.70691 | -16.76426 | 195 ft | 12 kts | 113° |
| 2026-05-07 15:17 | 32.70656 | -16.76431 | 193 ft | 1 kts | 220° |
| 2026-05-07 15:17 | 32.70652 | -16.76435 | 192 ft | 1 kts | 220° |
| 2026-05-07 15:17 | 32.70565 | -16.76536 | 195 ft | 51 kts | 225° |
| 2026-05-07 15:17 | 32.70133 | -16.77044 | 189 ft | 120 kts | 224° |
| 2026-05-07 15:18 | 32.69403 | -16.77893 | 251 ft | 164 kts | 224° |
| 2026-05-07 15:18 | 32.68578 | -16.78840 | 877 ft | 165 kts | 214° |
| 2026-05-07 15:18 | 32.67532 | -16.79356 | 1637 ft | 165 kts | 189° |
| 2026-05-07 15:18 | 32.66370 | -16.79209 | 2186 ft | 179 kts | 161° |
| 2026-05-07 15:19 | 32.65332 | -16.78239 | 2507 ft | 207 kts | 126° |
| 2026-05-07 15:19 | 32.64924 | -16.76505 | 2818 ft | 236 kts | 84° |
| 2026-05-07 15:19 | 32.65340 | -16.74528 | 3245 ft | 260 kts | 72° |
| 2026-05-07 15:19 | 32.65902 | -16.72434 | 3946 ft | 271 kts | 71° |
| 2026-05-07 15:20 | 32.66493 | -16.70282 | 4857 ft | 276 kts | 71° |
| 2026-05-07 15:20 | 32.67092 | -16.68099 | 5784 ft | 280 kts | 70° |
| 2026-05-07 15:20 | 32.67920 | -16.66007 | 6642 ft | 283 kts | 52° |
| 2026-05-07 15:20 | 32.69262 | -16.64340 | 7407 ft | 285 kts | 33° |
| 2026-05-07 15:21 | 32.71019 | -16.63253 | 8156 ft | 287 kts | 13° |
| 2026-05-07 15:21 | 32.72984 | -16.62904 | 8913 ft | 286 kts | 353° |
| 2026-05-07 15:21 | 32.74921 | -16.63325 | 9686 ft | 283 kts | 333° |
| 2026-05-07 15:21 | 32.76613 | -16.64455 | 10422 ft | 277 kts | 313° |
| 2026-05-07 15:22 | 32.77828 | -16.66180 | 11202 ft | 270 kts | 294° |
| 2026-05-07 15:22 | 32.78515 | -16.68249 | 11843 ft | 276 kts | 285° |
| 2026-05-07 15:22 | 32.79268 | -16.70459 | 12067 ft | 303 kts | 297° |
| 2026-05-07 15:22 | 32.80540 | -16.72596 | 12228 ft | 328 kts | 302° |
| 2026-05-07 15:23 | 32.81950 | -16.74852 | 12380 ft | 350 kts | 303° |
| 2026-05-07 15:23 | 32.83440 | -16.77201 | 12809 ft | 360 kts | 303° |
| 2026-05-07 15:23 | 32.84962 | -16.79589 | 13439 ft | 365 kts | 303° |
| 2026-05-07 15:23 | 32.86501 | -16.82008 | 14066 ft | 368 kts | 303° |
| 2026-05-07 15:24 | 32.88052 | -16.84446 | 14658 ft | 371 kts | 303° |
| 2026-05-07 15:24 | 32.89615 | -16.86908 | 15266 ft | 374 kts | 303° |
| 2026-05-07 15:24 | 32.91185 | -16.89393 | 15859 ft | 377 kts | 303° |
| 2026-05-07 15:24 | 32.92763 | -16.91899 | 16442 ft | 380 kts | 303° |
| 2026-05-07 15:25 | 32.94350 | -16.94427 | 17012 ft | 383 kts | 302° |
| 2026-05-07 15:25 | 32.95947 | -16.96980 | 17571 ft | 386 kts | 302° |
| 2026-05-07 15:25 | 32.97558 | -16.99555 | 18122 ft | 389 kts | 302° |
| 2026-05-07 15:25 | 32.99180 | -17.02145 | 18614 ft | 391 kts | 302° |
| 2026-05-07 15:26 | 33.00812 | -17.04751 | 19085 ft | 394 kts | 302° |
| 2026-05-07 15:26 | 33.02457 | -17.07379 | 19563 ft | 396 kts | 302° |
| 2026-05-07 15:26 | 33.04109 | -17.10023 | 20009 ft | 399 kts | 302° |
| 2026-05-07 15:26 | 33.05774 | -17.12688 | 20422 ft | 402 kts | 302° |
| 2026-05-07 15:27 | 33.07450 | -17.15372 | 20837 ft | 404 kts | 302° |
| 2026-05-07 15:27 | 33.09131 | -17.18066 | 21231 ft | 406 kts | 301° |
| 2026-05-07 15:27 | 33.10824 | -17.20783 | 21627 ft | 408 kts | 301° |
| 2026-05-07 15:27 | 33.12523 | -17.23510 | 22001 ft | 411 kts | 301° |
| 2026-05-07 15:28 | 33.14215 | -17.26222 | 22371 ft | 413 kts | 301° |
| 2026-05-07 15:28 | 33.15930 | -17.28975 | 22734 ft | 415 kts | 301° |
| 2026-05-07 15:28 | 33.17654 | -17.31746 | 23092 ft | 417 kts | 300° |
| 2026-05-07 15:28 | 33.19385 | -17.34532 | 23446 ft | 419 kts | 300° |
| 2026-05-07 15:29 | 33.21123 | -17.37334 | 23750 ft | 421 kts | 300° |
| 2026-05-07 15:29 | 33.22868 | -17.40147 | 24039 ft | 423 kts | 301° |
| 2026-05-07 15:29 | 33.24624 | -17.42978 | 24328 ft | 424 kts | 302° |
| 2026-05-07 15:29 | 33.26384 | -17.45818 | 24562 ft | 427 kts | 302° |
| 2026-05-07 15:30 | 33.28153 | -17.48674 | 24818 ft | 428 kts | 302° |
| 2026-05-07 15:30 | 33.29927 | -17.51539 | 25062 ft | 430 kts | 301° |
| 2026-05-07 15:30 | 33.31711 | -17.54423 | 25295 ft | 432 kts | 301° |
| 2026-05-07 15:30 | 33.33495 | -17.57315 | 25519 ft | 433 kts | 301° |
| 2026-05-07 15:31 | 33.35287 | -17.60225 | 25739 ft | 435 kts | 301° |
| 2026-05-07 15:31 | 33.37086 | -17.63146 | 25938 ft | 436 kts | 301° |
| 2026-05-07 15:31 | 33.38894 | -17.66079 | 26127 ft | 438 kts | 301° |
| 2026-05-07 15:31 | 33.40702 | -17.69010 | 26381 ft | 438 kts | 301° |
| 2026-05-07 15:32 | 33.42511 | -17.71944 | 26653 ft | 437 kts | 301° |
| 2026-05-07 15:32 | 33.44312 | -17.74871 | 26964 ft | 436 kts | 302° |
| 2026-05-07 15:32 | 33.46108 | -17.77791 | 27271 ft | 435 kts | 302° |
| 2026-05-07 15:32 | 33.47897 | -17.80704 | 27577 ft | 434 kts | 302° |
| 2026-05-07 15:33 | 33.49679 | -17.83612 | 27871 ft | 433 kts | 302° |
| 2026-05-07 15:33 | 33.51459 | -17.86520 | 28163 ft | 432 kts | 302° |
| 2026-05-07 15:33 | 33.53235 | -17.89424 | 28445 ft | 432 kts | 302° |
| 2026-05-07 15:33 | 33.55007 | -17.92326 | 28735 ft | 432 kts | 302° |
| 2026-05-07 15:34 | 33.56782 | -17.95229 | 29036 ft | 431 kts | 302° |
| 2026-05-07 15:34 | 33.58555 | -17.98131 | 29351 ft | 431 kts | 301° |
| 2026-05-07 15:34 | 33.60323 | -18.01031 | 29638 ft | 430 kts | 301° |
| 2026-05-07 15:34 | 33.62087 | -18.03926 | 29946 ft | 430 kts | 301° |
| 2026-05-07 15:35 | 33.63830 | -18.06785 | 30219 ft | 429 kts | 301° |
| 2026-05-07 15:35 | 33.65592 | -18.09676 | 30504 ft | 429 kts | 303° |
| 2026-05-07 15:35 | 33.67345 | -18.12554 | 30856 ft | 424 kts | 303° |
| 2026-05-07 15:35 | 33.69079 | -18.15404 | 31194 ft | 421 kts | 303° |
| 2026-05-07 15:36 | 33.70809 | -18.18247 | 31483 ft | 420 kts | 303° |
| 2026-05-07 15:36 | 33.72529 | -18.21079 | 31760 ft | 419 kts | 303° |
| 2026-05-07 15:36 | 33.74244 | -18.23908 | 32029 ft | 418 kts | 303° |
| 2026-05-07 15:36 | 33.75954 | -18.26732 | 32288 ft | 418 kts | 303° |
| 2026-05-07 15:37 | 33.77660 | -18.29558 | 32545 ft | 417 kts | 303° |
| 2026-05-07 15:37 | 33.79364 | -18.32380 | 32807 ft | 417 kts | 303° |
| 2026-05-07 15:37 | 33.81066 | -18.35194 | 33072 ft | 416 kts | 303° |
| 2026-05-07 15:37 | 33.82773 | -18.38010 | 33336 ft | 416 kts | 302° |
| 2026-05-07 15:38 | 33.84473 | -18.40828 | 33616 ft | 415 kts | 302° |
| 2026-05-07 15:38 | 33.86167 | -18.43642 | 33843 ft | 416 kts | 302° |
| 2026-05-07 15:38 | 33.87863 | -18.46461 | 34093 ft | 415 kts | 303° |
| 2026-05-07 15:38 | 33.89549 | -18.49266 | 34357 ft | 413 kts | 303° |
| 2026-05-07 15:39 | 33.91232 | -18.52062 | 34583 ft | 412 kts | 303° |
| 2026-05-07 15:39 | 33.92914 | -18.54856 | 34795 ft | 412 kts | 303° |
| 2026-05-07 15:39 | 33.94599 | -18.57657 | 34992 ft | 412 kts | 303° |
| 2026-05-07 15:39 | 33.96283 | -18.60458 | 35183 ft | 413 kts | 303° |
| 2026-05-07 15:40 | 33.97968 | -18.63260 | 35370 ft | 413 kts | 303° |
| 2026-05-07 15:40 | 33.99650 | -18.66058 | 35554 ft | 413 kts | 303° |
| 2026-05-07 15:40 | 34.01334 | -18.68867 | 35730 ft | 413 kts | 303° |
| 2026-05-07 15:40 | 34.03015 | -18.71677 | 35904 ft | 413 kts | 303° |
| 2026-05-07 15:41 | 34.04696 | -18.74491 | 36098 ft | 413 kts | 303° |
| 2026-05-07 15:41 | 34.06377 | -18.77309 | 36241 ft | 414 kts | 303° |
| 2026-05-07 15:41 | 34.08039 | -18.80096 | 36382 ft | 415 kts | 303° |
| 2026-05-07 15:41 | 34.09724 | -18.82923 | 36534 ft | 415 kts | 303° |
| 2026-05-07 15:42 | 34.11415 | -18.85755 | 36685 ft | 415 kts | 303° |
| 2026-05-07 15:42 | 34.13101 | -18.88586 | 36835 ft | 416 kts | 303° |
| 2026-05-07 15:42 | 34.14786 | -18.91419 | 36982 ft | 416 kts | 303° |
| 2026-05-07 15:42 | 34.16473 | -18.94255 | 37126 ft | 416 kts | 303° |
| 2026-05-07 15:43 | 34.18161 | -18.97095 | 37268 ft | 416 kts | 303° |
| 2026-05-07 15:43 | 34.19850 | -18.99939 | 37396 ft | 416 kts | 303° |
| 2026-05-07 15:43 | 34.21539 | -19.02783 | 37540 ft | 417 kts | 302° |
| 2026-05-07 15:43 | 34.23230 | -19.05634 | 37666 ft | 417 kts | 302° |
| 2026-05-07 15:44 | 34.24917 | -19.08487 | 37861 ft | 416 kts | 302° |
| 2026-05-07 15:44 | 34.26602 | -19.11342 | 37959 ft | 418 kts | 302° |
| 2026-05-07 15:44 | 34.29992 | -19.17078 | 37968 ft | 420 kts | 303° |
| 2026-05-07 15:45 | 34.33393 | -19.22822 | 37963 ft | 419 kts | 303° |
| 2026-05-07 15:45 | 34.36784 | -19.28565 | 37957 ft | 419 kts | 303° |
| 2026-05-07 15:46 | 34.41853 | -19.37189 | 37955 ft | 419 kts | 303° |
| 2026-05-07 15:47 | 34.45236 | -19.42942 | 37958 ft | 419 kts | 303° |
| 2026-05-07 15:47 | 34.48597 | -19.48677 | 37969 ft | 419 kts | 303° |
| 2026-05-07 15:48 | 34.51959 | -19.54439 | 37980 ft | 418 kts | 303° |
| 2026-05-07 15:48 | 34.55316 | -19.60188 | 37979 ft | 417 kts | 303° |
| 2026-05-07 15:49 | 34.58665 | -19.65930 | 37974 ft | 416 kts | 302° |
| 2026-05-07 15:49 | 34.61999 | -19.71666 | 37992 ft | 415 kts | 302° |
| 2026-05-07 15:50 | 34.65325 | -19.77396 | 37953 ft | 415 kts | 302° |
| 2026-05-07 15:50 | 34.68657 | -19.83129 | 37959 ft | 414 kts | 302° |
| 2026-05-07 15:51 | 34.71949 | -19.88790 | 37967 ft | 412 kts | 302° |
| 2026-05-07 15:51 | 34.75237 | -19.94470 | 37967 ft | 410 kts | 302° |
| 2026-05-07 15:52 | 34.78508 | -20.00135 | 37952 ft | 409 kts | 302° |
| 2026-05-07 15:52 | 34.81770 | -20.05791 | 37948 ft | 408 kts | 302° |
| 2026-05-07 15:53 | 34.85019 | -20.11433 | 37923 ft | 407 kts | 302° |
| 2026-05-07 15:53 | 34.87736 | -20.16162 | 37917 ft | 406 kts | 302° |
| 2026-05-07 15:54 | 34.90972 | -20.21797 | 37938 ft | 406 kts | 302° |
| 2026-05-07 15:54 | 34.94197 | -20.27427 | 37936 ft | 405 kts | 302° |
| 2026-05-07 15:55 | 34.97421 | -20.33064 | 37936 ft | 405 kts | 302° |
| 2026-05-07 15:55 | 35.00641 | -20.38687 | 37925 ft | 404 kts | 302° |
| 2026-05-07 15:56 | 35.03856 | -20.44313 | 37926 ft | 404 kts | 302° |
| 2026-05-07 15:56 | 35.07064 | -20.49955 | 37898 ft | 404 kts | 302° |
| 2026-05-07 15:57 | 35.10275 | -20.55600 | 37908 ft | 404 kts | 302° |
| 2026-05-07 15:57 | 35.13479 | -20.61242 | 37913 ft | 404 kts | 302° |
| 2026-05-07 15:58 | 35.16683 | -20.66888 | 37908 ft | 404 kts | 302° |
| 2026-05-07 15:58 | 35.19865 | -20.72503 | 37927 ft | 405 kts | 301° |
| 2026-05-07 15:59 | 35.23065 | -20.78174 | 37913 ft | 405 kts | 301° |
| 2026-05-07 15:59 | 35.26266 | -20.83857 | 37886 ft | 406 kts | 302° |
| 2026-05-07 16:00 | 35.29467 | -20.89559 | 37892 ft | 406 kts | 302° |
| 2026-05-07 16:00 | 35.32670 | -20.95250 | 37896 ft | 406 kts | 302° |
| 2026-05-07 16:01 | 35.35880 | -21.00956 | 37931 ft | 406 kts | 302° |
| 2026-05-07 16:01 | 35.39079 | -21.06659 | 37875 ft | 406 kts | 302° |
| 2026-05-07 16:02 | 35.42261 | -21.12337 | 37873 ft | 406 kts | 301° |
| 2026-05-07 16:02 | 35.45456 | -21.18059 | 37871 ft | 407 kts | 302° |
| 2026-05-07 16:03 | 35.48648 | -21.23784 | 37884 ft | 406 kts | 302° |
| 2026-05-07 16:03 | 35.51834 | -21.29507 | 37893 ft | 406 kts | 302° |
| 2026-05-07 16:04 | 35.55020 | -21.35228 | 37862 ft | 404 kts | 302° |
| 2026-05-07 16:04 | 35.58185 | -21.40922 | 37855 ft | 403 kts | 301° |
| 2026-05-07 16:05 | 35.61345 | -21.46629 | 37857 ft | 404 kts | 301° |
| 2026-05-07 16:05 | 35.64508 | -21.52343 | 37844 ft | 404 kts | 302° |
| 2026-05-07 16:06 | 35.67665 | -21.58068 | 37865 ft | 405 kts | 302° |
| 2026-05-07 16:06 | 35.70813 | -21.63773 | 37871 ft | 405 kts | 302° |
| 2026-05-07 16:07 | 35.73971 | -21.69515 | 37869 ft | 405 kts | 302° |
| 2026-05-07 16:07 | 35.77130 | -21.75269 | 37870 ft | 406 kts | 301° |
| 2026-05-07 16:08 | 35.80288 | -21.81033 | 37859 ft | 406 kts | 301° |
| 2026-05-07 16:08 | 35.83449 | -21.86803 | 37874 ft | 406 kts | 302° |
| 2026-05-07 16:09 | 35.86606 | -21.92571 | 37887 ft | 405 kts | 302° |
| 2026-05-07 16:09 | 35.89754 | -21.98335 | 37857 ft | 404 kts | 302° |
| 2026-05-07 16:10 | 35.92893 | -22.04085 | 37854 ft | 404 kts | 301° |
| 2026-05-07 16:10 | 35.96024 | -22.09855 | 37859 ft | 405 kts | 301° |
| 2026-05-07 16:11 | 35.99160 | -22.15625 | 37853 ft | 405 kts | 301° |
| 2026-05-07 16:11 | 36.02293 | -22.21414 | 37860 ft | 405 kts | 301° |
| 2026-05-07 16:12 | 36.05422 | -22.27202 | 37883 ft | 405 kts | 301° |
| 2026-05-07 16:12 | 36.08537 | -22.32953 | 37864 ft | 405 kts | 301° |
| 2026-05-07 16:13 | 36.11679 | -22.38765 | 37858 ft | 406 kts | 301° |
| 2026-05-07 16:13 | 36.14810 | -22.44581 | 37851 ft | 406 kts | 301° |
| 2026-05-07 16:14 | 36.17952 | -22.50415 | 37851 ft | 406 kts | 301° |
| 2026-05-07 16:14 | 36.21075 | -22.56245 | 37854 ft | 406 kts | 301° |
| 2026-05-07 16:15 | 36.24193 | -22.62067 | 37857 ft | 405 kts | 301° |
| 2026-05-07 16:15 | 36.27292 | -22.67860 | 37854 ft | 405 kts | 301° |
| 2026-05-07 16:16 | 36.30406 | -22.73682 | 37862 ft | 405 kts | 301° |
| 2026-05-07 16:16 | 36.33517 | -22.79508 | 37848 ft | 405 kts | 301° |
| 2026-05-07 16:17 | 36.36615 | -22.85336 | 37868 ft | 404 kts | 301° |
| 2026-05-07 16:17 | 36.39702 | -22.91160 | 37883 ft | 404 kts | 301° |
| 2026-05-07 16:18 | 36.42794 | -22.96989 | 37873 ft | 404 kts | 301° |
| 2026-05-07 16:18 | 36.45887 | -23.02810 | 37871 ft | 404 kts | 301° |
| 2026-05-07 16:19 | 36.48971 | -23.08650 | 37869 ft | 404 kts | 301° |
| 2026-05-07 16:19 | 36.52056 | -23.14496 | 37869 ft | 404 kts | 301° |
| 2026-05-07 16:20 | 36.55134 | -23.20334 | 37868 ft | 404 kts | 301° |
| 2026-05-07 16:20 | 36.58212 | -23.26177 | 37871 ft | 403 kts | 301° |
| 2026-05-07 16:21 | 36.61284 | -23.32029 | 37865 ft | 404 kts | 301° |
| 2026-05-07 16:21 | 36.64359 | -23.37901 | 37876 ft | 405 kts | 301° |
| 2026-05-07 16:22 | 36.67432 | -23.43782 | 37862 ft | 405 kts | 301° |
| 2026-05-07 16:22 | 36.70506 | -23.49670 | 37882 ft | 405 kts | 301° |
| 2026-05-07 16:23 | 36.73575 | -23.55558 | 37880 ft | 405 kts | 301° |
| 2026-05-07 16:23 | 36.76625 | -23.61415 | 37875 ft | 405 kts | 301° |
| 2026-05-07 16:24 | 36.79692 | -23.67326 | 37877 ft | 406 kts | 301° |
| 2026-05-07 16:24 | 36.82764 | -23.73235 | 37878 ft | 406 kts | 301° |
| 2026-05-07 16:25 | 36.85832 | -23.79157 | 37878 ft | 406 kts | 301° |
| 2026-05-07 16:25 | 36.88888 | -23.85074 | 37907 ft | 406 kts | 301° |
| 2026-05-07 16:26 | 36.91944 | -23.91010 | 37896 ft | 406 kts | 301° |
| 2026-05-07 16:26 | 36.94995 | -23.96949 | 37890 ft | 406 kts | 301° |
| 2026-05-07 16:27 | 36.98049 | -24.02886 | 37886 ft | 406 kts | 301° |
| 2026-05-07 16:27 | 37.01104 | -24.08831 | 37873 ft | 406 kts | 301° |
| 2026-05-07 16:28 | 37.04145 | -24.14770 | 37911 ft | 405 kts | 301° |
| 2026-05-07 16:28 | 37.07187 | -24.20710 | 37899 ft | 405 kts | 301° |
| 2026-05-07 16:29 | 37.10223 | -24.26655 | 37893 ft | 405 kts | 301° |
| 2026-05-07 16:29 | 37.13246 | -24.32608 | 37889 ft | 405 kts | 301° |
| 2026-05-07 16:30 | 37.16279 | -24.38569 | 37886 ft | 405 kts | 301° |
| 2026-05-07 16:30 | 37.19305 | -24.44513 | 37914 ft | 404 kts | 301° |
| 2026-05-07 16:31 | 37.22324 | -24.50468 | 37891 ft | 404 kts | 301° |
| 2026-05-07 16:31 | 37.25314 | -24.56389 | 37891 ft | 404 kts | 301° |
| 2026-05-07 16:32 | 37.28327 | -24.62350 | 37889 ft | 404 kts | 301° |
| 2026-05-07 16:32 | 37.31342 | -24.68313 | 37892 ft | 404 kts | 301° |
| 2026-05-07 16:33 | 37.34347 | -24.74283 | 37916 ft | 404 kts | 301° |
| 2026-05-07 16:33 | 37.37343 | -24.80264 | 37906 ft | 405 kts | 301° |
| 2026-05-07 16:34 | 37.40344 | -24.86249 | 37894 ft | 405 kts | 301° |
| 2026-05-07 16:34 | 37.43349 | -24.92247 | 37897 ft | 405 kts | 301° |
| 2026-05-07 16:35 | 37.46354 | -24.98244 | 37890 ft | 405 kts | 301° |
| 2026-05-07 16:35 | 37.49347 | -25.04253 | 37932 ft | 405 kts | 301° |
| 2026-05-07 16:36 | 37.51836 | -25.09266 | 37888 ft | 402 kts | 301° |
| 2026-05-07 16:36 | 37.54783 | -25.15197 | 37880 ft | 402 kts | 301° |
| 2026-05-07 16:37 | 37.57750 | -25.21168 | 37882 ft | 402 kts | 301° |
| 2026-05-07 16:37 | 37.60715 | -25.27152 | 37892 ft | 402 kts | 301° |
| 2026-05-07 16:38 | 37.63679 | -25.33149 | 37887 ft | 403 kts | 301° |
| 2026-05-07 16:38 | 37.66640 | -25.39153 | 37892 ft | 404 kts | 301° |
| 2026-05-07 16:39 | 37.69606 | -25.45178 | 37887 ft | 404 kts | 301° |
| 2026-05-07 16:39 | 37.72579 | -25.51217 | 37880 ft | 405 kts | 301° |
| 2026-05-07 16:40 | 37.75534 | -25.57251 | 37881 ft | 405 kts | 301° |
| 2026-05-07 16:40 | 37.78499 | -25.63312 | 37879 ft | 405 kts | 301° |
| 2026-05-07 16:41 | 37.81466 | -25.69373 | 37869 ft | 405 kts | 301° |
| 2026-05-07 16:41 | 37.84415 | -25.75452 | 37886 ft | 405 kts | 298° |
| 2026-05-07 16:42 | 37.86786 | -25.81911 | 37890 ft | 405 kts | 295° |
| 2026-05-07 16:42 | 37.89075 | -25.88373 | 37893 ft | 404 kts | 294° |
| 2026-05-07 16:43 | 37.91374 | -25.94877 | 37902 ft | 404 kts | 294° |
| 2026-05-07 16:43 | 37.93666 | -26.01373 | 37922 ft | 404 kts | 295° |
| 2026-05-07 16:44 | 37.95968 | -26.07869 | 37925 ft | 404 kts | 295° |
| 2026-05-07 16:44 | 37.98351 | -26.14315 | 37917 ft | 403 kts | 296° |
| 2026-05-07 16:45 | 38.00781 | -26.20720 | 37919 ft | 403 kts | 296° |
| 2026-05-07 16:45 | 38.03203 | -26.27145 | 37905 ft | 403 kts | 296° |
| 2026-05-07 16:46 | 38.05585 | -26.33526 | 37941 ft | 402 kts | 296° |
| 2026-05-07 16:46 | 38.07975 | -26.39953 | 37936 ft | 402 kts | 296° |
| 2026-05-07 16:46 | 38.09168 | -26.43166 | 37758 ft | 402 kts | 296° |
| 2026-05-07 16:47 | 38.10360 | -26.46376 | 37491 ft | 401 kts | 296° |
| 2026-05-07 16:47 | 38.11546 | -26.49570 | 37229 ft | 400 kts | 296° |
| 2026-05-07 16:47 | 38.12730 | -26.52767 | 36978 ft | 398 kts | 296° |
| 2026-05-07 16:47 | 38.13906 | -26.55943 | 36413 ft | 396 kts | 296° |
| 2026-05-07 16:48 | 38.15077 | -26.59104 | 35711 ft | 392 kts | 296° |
| 2026-05-07 16:48 | 38.16231 | -26.62229 | 34991 ft | 389 kts | 296° |
| 2026-05-07 16:48 | 38.17378 | -26.65341 | 34240 ft | 388 kts | 296° |
| 2026-05-07 16:48 | 38.18514 | -26.68430 | 33504 ft | 385 kts | 296° |
| 2026-05-07 16:49 | 38.19642 | -26.71500 | 32648 ft | 383 kts | 296° |
| 2026-05-07 16:49 | 38.20766 | -26.74558 | 31794 ft | 380 kts | 296° |
| 2026-05-07 16:49 | 38.21881 | -26.77594 | 30959 ft | 377 kts | 296° |
| 2026-05-07 16:49 | 38.22983 | -26.80600 | 30139 ft | 373 kts | 296° |
| 2026-05-07 16:50 | 38.24078 | -26.83588 | 29114 ft | 371 kts | 296° |
| 2026-05-07 16:50 | 38.25162 | -26.86551 | 28142 ft | 369 kts | 296° |
| 2026-05-07 16:50 | 38.26237 | -26.89489 | 27227 ft | 364 kts | 297° |
| 2026-05-07 16:50 | 38.27304 | -26.92402 | 26236 ft | 363 kts | 297° |
| 2026-05-07 16:51 | 38.28353 | -26.95270 | 25299 ft | 362 kts | 297° |
| 2026-05-07 16:51 | 38.29415 | -26.98182 | 24373 ft | 365 kts | 297° |
| 2026-05-07 16:51 | 38.30489 | -27.01131 | 23465 ft | 367 kts | 297° |
| 2026-05-07 16:51 | 38.31564 | -27.04083 | 22433 ft | 369 kts | 297° |
| 2026-05-07 16:52 | 38.32648 | -27.07054 | 21654 ft | 370 kts | 297° |
| 2026-05-07 16:52 | 38.33730 | -27.10017 | 20951 ft | 368 kts | 297° |
| 2026-05-07 16:52 | 38.34802 | -27.12962 | 20243 ft | 366 kts | 297° |
| 2026-05-07 16:52 | 38.35864 | -27.15893 | 19534 ft | 363 kts | 296° |
| 2026-05-07 16:53 | 38.36917 | -27.18807 | 18817 ft | 361 kts | 297° |
| 2026-05-07 16:53 | 38.37963 | -27.21703 | 18157 ft | 358 kts | 297° |
| 2026-05-07 16:53 | 38.38998 | -27.24576 | 17440 ft | 355 kts | 297° |
| 2026-05-07 16:53 | 38.40025 | -27.27426 | 16791 ft | 352 kts | 296° |
| 2026-05-07 16:54 | 38.41044 | -27.30251 | 16160 ft | 350 kts | 296° |
| 2026-05-07 16:54 | 38.42058 | -27.33061 | 15548 ft | 347 kts | 296° |
| 2026-05-07 16:54 | 38.43064 | -27.35847 | 14971 ft | 345 kts | 296° |
| 2026-05-07 16:54 | 38.44068 | -27.38625 | 14363 ft | 345 kts | 297° |
| 2026-05-07 16:55 | 38.45069 | -27.41404 | 13788 ft | 344 kts | 297° |
| 2026-05-07 16:55 | 38.46064 | -27.44172 | 13174 ft | 342 kts | 297° |
| 2026-05-07 16:55 | 38.47052 | -27.46930 | 12615 ft | 340 kts | 297° |
| 2026-05-07 16:55 | 38.48027 | -27.49659 | 12055 ft | 336 kts | 297° |
| 2026-05-07 16:56 | 38.48991 | -27.52351 | 11502 ft | 332 kts | 297° |
| 2026-05-07 16:56 | 38.49934 | -27.54993 | 11189 ft | 319 kts | 297° |
| 2026-05-07 16:56 | 38.51668 | -27.59862 | 10719 ft | 281 kts | 297° |
| 2026-05-07 16:57 | 38.52445 | -27.62049 | 10470 ft | 259 kts | 297° |
| 2026-05-07 16:57 | 38.53162 | -27.64064 | 10224 ft | 240 kts | 297° |
| 2026-05-07 16:57 | 38.53834 | -27.65950 | 9998 ft | 229 kts | 298° |
| 2026-05-07 16:57 | 38.54491 | -27.67784 | 9824 ft | 226 kts | 298° |
| 2026-05-07 16:58 | 38.55145 | -27.69608 | 9704 ft | 226 kts | 298° |
| 2026-05-07 16:58 | 38.55802 | -27.71445 | 9564 ft | 229 kts | 298° |
| 2026-05-07 16:58 | 38.56464 | -27.73291 | 9435 ft | 228 kts | 298° |
| 2026-05-07 16:58 | 38.57123 | -27.75137 | 9299 ft | 228 kts | 298° |
| 2026-05-07 16:59 | 38.57779 | -27.76980 | 9169 ft | 228 kts | 298° |
| 2026-05-07 16:59 | 38.58435 | -27.78822 | 9018 ft | 227 kts | 298° |
| 2026-05-07 16:59 | 38.59084 | -27.80651 | 8885 ft | 226 kts | 298° |
| 2026-05-07 16:59 | 38.59732 | -27.82477 | 8754 ft | 225 kts | 298° |
| 2026-05-07 17:00 | 38.60377 | -27.84299 | 8622 ft | 225 kts | 298° |
| 2026-05-07 17:00 | 38.60859 | -27.86225 | 8377 ft | 232 kts | 287° |
| 2026-05-07 17:00 | 38.60967 | -27.88314 | 7849 ft | 236 kts | 273° |
| 2026-05-07 17:00 | 38.60771 | -27.90404 | 7215 ft | 237 kts | 270° |
| 2026-05-07 17:01 | 38.60562 | -27.92498 | 6612 ft | 238 kts | 271° |
| 2026-05-07 17:01 | 38.60349 | -27.94562 | 6147 ft | 231 kts | 271° |
| 2026-05-07 17:01 | 38.60146 | -27.96576 | 5787 ft | 226 kts | 271° |
| 2026-05-07 17:01 | 38.59952 | -27.98578 | 5641 ft | 227 kts | 271° |
| 2026-05-07 17:02 | 38.59758 | -28.00580 | 5530 ft | 228 kts | 271° |
| 2026-05-07 17:02 | 38.59562 | -28.02603 | 5425 ft | 229 kts | 271° |
| 2026-05-07 17:02 | 38.59366 | -28.04570 | 5323 ft | 220 kts | 271° |
| 2026-05-07 17:02 | 38.59178 | -28.06507 | 5231 ft | 219 kts | 271° |
| 2026-05-07 17:03 | 38.58990 | -28.08441 | 5121 ft | 219 kts | 271° |
| 2026-05-07 17:03 | 38.58799 | -28.10383 | 5034 ft | 219 kts | 272° |
| 2026-05-07 17:03 | 38.58609 | -28.12314 | 4870 ft | 218 kts | 272° |
| 2026-05-07 17:03 | 38.58419 | -28.14243 | 4606 ft | 219 kts | 272° |
| 2026-05-07 17:04 | 38.58230 | -28.16163 | 4309 ft | 217 kts | 273° |
| 2026-05-07 17:04 | 38.58041 | -28.18058 | 4019 ft | 213 kts | 274° |
| 2026-05-07 17:04 | 38.57856 | -28.19924 | 3729 ft | 209 kts | 272° |
| 2026-05-07 17:04 | 38.57676 | -28.21747 | 3452 ft | 205 kts | 271° |
| 2026-05-07 17:05 | 38.57498 | -28.23537 | 3182 ft | 201 kts | 273° |
| 2026-05-07 17:05 | 38.57323 | -28.25291 | 2905 ft | 196 kts | 272° |
| 2026-05-07 17:05 | 38.57154 | -28.26974 | 2645 ft | 186 kts | 270° |
| 2026-05-07 17:05 | 38.56994 | -28.28577 | 2428 ft | 179 kts | 274° |
| 2026-05-07 17:06 | 38.56840 | -28.30117 | 2154 ft | 169 kts | 271° |
| 2026-05-07 17:06 | 38.56695 | -28.31557 | 1923 ft | 158 kts | 271° |
| 2026-05-07 17:06 | 38.56560 | -28.32881 | 1757 ft | 139 kts | 276° |
| 2026-05-07 17:06 | 38.56442 | -28.34057 | 1560 ft | 130 kts | 277° |
| 2026-05-07 17:07 | 38.56331 | -28.35195 | 1381 ft | 130 kts | 273° |
| 2026-05-07 17:07 | 38.56219 | -28.36319 | 1214 ft | 126 kts | 275° |
| 2026-05-07 17:07 | 38.56109 | -28.37443 | 1033 ft | 131 kts | 271° |
| 2026-05-07 17:07 | 38.56009 | -28.38600 | 871 ft | 130 kts | 270° |
| 2026-05-07 17:08 | 38.55897 | -28.39740 | 760 ft | 129 kts | 268° |
| 2026-05-07 17:08 | 38.55761 | -28.40883 | 539 ft | 129 kts | 268° |
| 2026-05-07 17:08 | 38.55647 | -28.42009 | 355 ft | 127 kts | 269° |
| 2026-05-07 17:08 | 38.55533 | -28.43114 | 208 ft | 124 kts | 273° |
| 2026-05-07 17:09 | 38.55436 | -28.44135 | 132 ft | 100 kts | 264° |
| 2026-05-07 17:09 | 38.55384 | -28.44638 | 132 ft | 23 kts | 262° |
| 2026-05-07 17:09 | 38.55363 | -28.44823 | 132 ft | 20 kts | 262° |
| 2026-05-07 17:09 | 38.55345 | -28.44999 | 135 ft | 18 kts | 262° |
| 2026-05-07 17:10 | 38.55318 | -28.45105 | 134 ft | 9 kts | 283° |
| 2026-05-07 17:10 | 38.55337 | -28.45094 | 131 ft | 6 kts | 74° |
| 2026-05-07 17:10 | 38.55347 | -28.45012 | 133 ft | 12 kts | 83° |
| 2026-05-07 17:10 | 38.55356 | -28.44909 | 134 ft | 12 kts | 84° |
| 2026-05-07 17:11 | 38.55366 | -28.44800 | 133 ft | 12 kts | 83° |
| 2026-05-07 17:11 | 38.55377 | -28.44692 | 131 ft | 12 kts | 82° |
| 2026-05-07 17:11 | 38.55387 | -28.44592 | 133 ft | 11 kts | 83° |
| 2026-05-07 17:11 | 38.55397 | -28.44502 | 133 ft | 10 kts | 82° |
| 2026-05-07 17:12 | 38.55407 | -28.44414 | 129 ft | 12 kts | 82° |
| 2026-05-07 17:12 | 38.55421 | -28.44278 | 130 ft | 16 kts | 82° |
| 2026-05-07 17:12 | 38.55419 | -28.44151 | 132 ft | 13 kts | 127° |
| 2026-05-07 17:12 | 38.55339 | -28.44121 | 134 ft | 11 kts | 184° |
| 2026-05-07 17:13 | 38.55277 | -28.44167 | 133 ft | 10 kts | 232° |
| 2026-05-07 17:13 | 38.55255 | -28.44238 | 135 ft | 6 kts | 278° |
| 2026-05-07 17:13 | 38.55265 | -28.44259 | 134 ft | 0 kts | 304° |